N724PT KMEM-KMEM
Flight info
| Callsign | N724PT |
|---|---|
| Flight time | 0h 10m |
| Altitude | VFR/013 |
| Route | PATTERNS |
| Aircraft | B36T/L-DOV/C |
Departure
| Time | 2026-05-05 23:39 |
|---|---|
| Airport | Memphis International Airport (KMEM) |
Arrival
| Time | 2026-05-05 23:49 |
|---|---|
| Airport | Memphis International Airport (KMEM) |
| Time | Latitude | Longitude | Altitude | Speed | Heading |
|---|---|---|---|---|---|
| 2026-05-05 23:28 | 35.05463 | -89.98253 | 285 ft | 0 kts | 270° |
| 2026-05-05 23:30 | 35.05463 | -89.98220 | 287 ft | 0 kts | 271° |
| 2026-05-05 23:34 | 35.05465 | -89.98251 | 285 ft | 13 kts | 282° |
| 2026-05-05 23:34 | 35.05487 | -89.98303 | 284 ft | 9 kts | 307° |
| 2026-05-05 23:34 | 35.05541 | -89.98372 | 283 ft | 7 kts | 324° |
| 2026-05-05 23:35 | 35.05566 | -89.98400 | 283 ft | 8 kts | 300° |
| 2026-05-05 23:35 | 35.05537 | -89.98511 | 280 ft | 18 kts | 181° |
| 2026-05-05 23:35 | 35.05428 | -89.98512 | 280 ft | 17 kts | 179° |
| 2026-05-05 23:35 | 35.05263 | -89.98513 | 278 ft | 32 kts | 181° |
| 2026-05-05 23:36 | 35.05078 | -89.98545 | 291 ft | 24 kts | 202° |
| 2026-05-05 23:36 | 35.04951 | -89.98619 | 292 ft | 9 kts | 217° |
| 2026-05-05 23:36 | 35.04943 | -89.98630 | 293 ft | 0 kts | 235° |
| 2026-05-05 23:38 | 35.04934 | -89.98659 | 293 ft | 16 kts | 267° |
| 2026-05-05 23:39 | 35.04845 | -89.98741 | 292 ft | 36 kts | 179° |
| 2026-05-05 23:39 | 35.04306 | -89.98731 | 470 ft | 106 kts | 182° |
| 2026-05-05 23:39 | 35.03411 | -89.98694 | 961 ft | 147 kts | 177° |
| 2026-05-05 23:39 | 35.02272 | -89.98700 | 1041 ft | 171 kts | 198° |
| 2026-05-05 23:40 | 35.01577 | -89.99762 | 1025 ft | 163 kts | 272° |
| 2026-05-05 23:40 | 35.02248 | -90.00641 | 999 ft | 146 kts | 342° |
| 2026-05-05 23:40 | 35.03234 | -90.00675 | 960 ft | 145 kts | 4° |
| 2026-05-05 23:40 | 35.04183 | -90.00519 | 1061 ft | 138 kts | 4° |
| 2026-05-05 23:41 | 35.05161 | -90.00426 | 983 ft | 143 kts | 3° |
| 2026-05-05 23:41 | 35.06102 | -90.00320 | 1111 ft | 139 kts | 5° |
| 2026-05-05 23:41 | 35.07057 | -90.00162 | 1192 ft | 139 kts | 9° |
| 2026-05-05 23:41 | 35.08044 | -89.99993 | 1123 ft | 148 kts | 1° |
| 2026-05-05 23:42 | 35.09054 | -89.99933 | 1197 ft | 139 kts | 1° |
| 2026-05-05 23:42 | 35.10016 | -89.99793 | 1185 ft | 139 kts | 23° |
| 2026-05-05 23:42 | 35.10356 | -89.98920 | 1152 ft | 112 kts | 121° |
| 2026-05-05 23:42 | 35.09814 | -89.98633 | 974 ft | 97 kts | 195° |
| 2026-05-05 23:43 | 35.09158 | -89.98801 | 889 ft | 94 kts | 182° |
| 2026-05-05 23:43 | 35.08538 | -89.98798 | 739 ft | 91 kts | 178° |
| 2026-05-05 23:43 | 35.07898 | -89.98781 | 706 ft | 92 kts | 185° |
| 2026-05-05 23:43 | 35.07292 | -89.98776 | 563 ft | 75 kts | 183° |
| 2026-05-05 23:44 | 35.06822 | -89.98790 | 514 ft | 64 kts | 183° |
| 2026-05-05 23:44 | 35.06305 | -89.98736 | 532 ft | 85 kts | 186° |
| 2026-05-05 23:44 | 35.05697 | -89.98758 | 454 ft | 87 kts | 181° |
| 2026-05-05 23:44 | 35.05156 | -89.98751 | 351 ft | 72 kts | 182° |
| 2026-05-05 23:45 | 35.04641 | -89.98742 | 306 ft | 72 kts | 183° |
| 2026-05-05 23:45 | 35.04172 | -89.98743 | 292 ft | 63 kts | 180° |
| 2026-05-05 23:45 | 35.03521 | -89.98716 | 465 ft | 118 kts | 179° |
| 2026-05-05 23:45 | 35.02627 | -89.98657 | 913 ft | 136 kts | 175° |
| 2026-05-05 23:46 | 35.01866 | -89.98856 | 904 ft | 107 kts | 223° |
| 2026-05-05 23:46 | 35.01795 | -89.99697 | 914 ft | 108 kts | 291° |
| 2026-05-05 23:46 | 35.02494 | -90.00051 | 914 ft | 119 kts | 356° |
| 2026-05-05 23:46 | 35.03319 | -90.00021 | 899 ft | 114 kts | 0° |
| 2026-05-05 23:47 | 35.04096 | -89.99941 | 946 ft | 112 kts | 2° |
| 2026-05-05 23:47 | 35.04875 | -89.99825 | 933 ft | 115 kts | 7° |
| 2026-05-05 23:47 | 35.05671 | -89.99780 | 933 ft | 112 kts | 359° |
| 2026-05-05 23:47 | 35.06463 | -89.99717 | 886 ft | 117 kts | 9° |
| 2026-05-05 23:48 | 35.06958 | -89.99146 | 791 ft | 80 kts | 109° |
| 2026-05-05 23:48 | 35.06583 | -89.98803 | 609 ft | 71 kts | 174° |
| 2026-05-05 23:48 | 35.06111 | -89.98765 | 533 ft | 68 kts | 186° |
| 2026-05-05 23:48 | 35.05623 | -89.98751 | 459 ft | 71 kts | 182° |
| 2026-05-05 23:49 | 35.05140 | -89.98759 | 359 ft | 68 kts | 182° |
| 2026-05-05 23:49 | 35.04683 | -89.98740 | 301 ft | 60 kts | 182° |
| 2026-05-05 23:49 | 35.04318 | -89.98736 | 289 ft | 41 kts | 180° |
| 2026-05-05 23:49 | 35.04195 | -89.98616 | 292 ft | 16 kts | 53° |
| 2026-05-05 23:50 | 35.04231 | -89.98597 | 291 ft | 0 kts | 5° |
| 2026-05-05 23:51 | 35.04252 | -89.98597 | 293 ft | 14 kts | 358° |
| 2026-05-05 23:51 | 35.04451 | -89.98602 | 291 ft | 40 kts | 358° |
| 2026-05-05 23:51 | 35.04771 | -89.98610 | 293 ft | 51 kts | 358° |
| 2026-05-05 23:51 | 35.05097 | -89.98532 | 289 ft | 43 kts | 21° |
| 2026-05-05 23:52 | 35.05482 | -89.98526 | 279 ft | 64 kts | 10° |
| 2026-05-05 23:52 | 35.05598 | -89.98399 | 283 ft | 2 kts | 172° |
| 2026-05-05 23:52 | 35.05442 | -89.98363 | 280 ft | 35 kts | 186° |
| 2026-05-05 23:52 | 35.05377 | -89.98380 | 277 ft | 0 kts | 96° |